Home > Products > Valid Products > MTR

000
SAUS41 KPHI 101255
MTR12N
METAR K12N 101254Z AUTO VRB03KT M01/M03 A2960 RMK AO1 SLP035
T10111028





000
SAUS41 KPHI 101155
MTR12N
METAR K12N 101154Z AUTO 00000KT M01/M02 A2958 RMK AO1 SLP028 P0001
60001 70003 T10111022 11011 21011 51012





000
SAUS41 KPHI 101155
MTR12N
METAR K12N 101154Z AUTO 00000KT M01/M02 A2958 RMK AO1 SLP028 P0001
60001 70003 T10111022 11011 21011 51012





000
SAUS41 KPHI 101055
MTR12N
METAR K12N 101054Z AUTO 22003KT M01/M03 A2957 RMK AO1 SLP024
T10111028





000
SAUS41 KPHI 100955
MTR12N
METAR K12N 100954Z AUTO 21003KT M01/M03 A2956 RMK AO1 SLP022
T10111028





000
SAUS41 KPHI 100855
MTR12N
METAR K12N 100854Z AUTO 00000KT M01/M02 A2955 RMK AO1 SLP016
T10111022 58005





000
SAUS41 KPHI 100755
MTR12N
METAR K12N 100754Z AUTO 00000KT M01/M03 A2955 RMK AO1 SLP018
T10111028





000
SAUS41 KPHI 100655
MTR12N
METAR K12N 100654Z AUTO 20003KT M01/M02 A2956 RMK AO1 SLP021
T10111022





000
SAUS41 KPHI 100655
MTR12N
METAR K12N 100654Z AUTO 20003KT M01/M02 A2956 RMK AO1 SLP021
T10111022





000
SAUS41 KPHI 100555
MTR12N
METAR K12N 100554Z AUTO 00000KT M01/M02 A2956 RMK AO1 SLP022 60002
T10111022 11006 21017 56008





000
SAUS41 KPHI 100555
MTR12N
METAR K12N 100554Z AUTO 00000KT M01/M02 A2956 RMK AO1 SLP022 60002
T10111022 11006 21017 56008





000
SAUS41 KPHI 100455
MTR12N
METAR K12N 100454Z AUTO 00000KT M01/M02 A2957 RMK AO1 SLP025
T10111022 400111039





000
SAUS41 KPHI 100455
MTR12N
METAR K12N 100454Z AUTO 00000KT M01/M02 A2957 RMK AO1 SLP025
T10111022 400111039





000
SAUS41 KPHI 100355
MTR12N
METAR K12N 100354Z AUTO 00000KT M02/M02 A2958 RMK AO1 SLP028 P0001
T10171022





000
SAUS41 KPHI 100255
MTR12N
METAR K12N 100254Z AUTO 00000KT M02/M02 A2959 RMK AO1 SLP031 P0001
60001 T10171022 50001





000
SAUS41 KPHI 100255
MTR12N
METAR K12N 100254Z AUTO 00000KT M02/M02 A2959 RMK AO1 SLP031 P0001
60001 T10171022 50001





000
SAUS41 KPHI 100155
MTR12N
METAR K12N 100154Z AUTO 00000KT M01/M03 A2959 RMK AO1 SLP031
T10111028





000
SAUS41 KPHI 100155
MTR12N
METAR K12N 100154Z AUTO 00000KT M01/M03 A2959 RMK AO1 SLP031
T10111028





000
SAUS41 KPHI 100055
MTR12N
METAR K12N 100054Z AUTO 00000KT M01/M03 A2958 RMK AO1 SLP030
T10061033





000
SAUS41 KPHI 100055
MTR12N
METAR K12N 100054Z AUTO 00000KT M01/M03 A2958 RMK AO1 SLP030
T10061033





000
SAUS41 KPHI 092355
MTR12N
METAR K12N 092354Z AUTO 00000KT M01/M04 A2958 RMK AO1 SLP030
T10061039 10011 21006 53014





000
SAUS41 KPHI 092355
MTR12N
METAR K12N 092354Z AUTO 00000KT M01/M04 A2958 RMK AO1 SLP030
T10061039 10011 21006 53014





000
SAUS41 KPHI 092255
MTR12N
METAR K12N 092254Z AUTO 00000KT M01/M04 A2957 RMK AO1 SLP023
T10061044





000
SAUS41 KPHI 092255
MTR12N
METAR K12N 092254Z AUTO 00000KT M01/M04 A2957 RMK AO1 SLP023
T10061044





000
SAUS41 KPHI 092155
MTR12N
METAR K12N 092154Z AUTO 00000KT 01/M04 A2955 RMK AO1 SLP017
T00061044





000
SAUS41 KPHI 092055
MTR12N
METAR K12N 092054Z AUTO 00000KT 01/M04 A2954 RMK AO1 SLP014
T00061044 55002





000
SAUS41 KPHI 092055
MTR12N
METAR K12N 092054Z AUTO 00000KT 01/M04 A2954 RMK AO1 SLP014
T00061044 55002





000
SAUS41 KPHI 091955
MTR12N
METAR K12N 091954Z AUTO 00000KT 01/M05 A2954 RMK AO1 SLP013
T00061050





000
SAUS41 KPHI 091855
MTR12N
METAR K12N 091854Z AUTO 00000KT 00/M05 A2954 RMK AO1 SLP013
T00001050





000
SAUS41 KPHI 091855
MTR12N
METAR K12N 091854Z AUTO 00000KT 00/M05 A2954 RMK AO1 SLP013
T00001050





000
SAUS41 KPHI 091755
MTR12N
METAR K12N 091754Z AUTO 36003KT M01/M05 A2955 RMK AO1 SLP017
T10061050 11006 21039 58026





000
SAUS41 KPHI 091655
MTR12N
METAR K12N 091654Z AUTO 01003KT M02/M06 A2958 RMK AO1 SLP027
T10221056





000
SAUS41 KPHI 091655
MTR12N
METAR K12N 091654Z AUTO 01003KT M02/M06 A2958 RMK AO1 SLP027
T10221056





000
SAUS41 KPHI 091555
MTR12N
METAR K12N 091554Z AUTO VRB04KT M03/M06 A2961 RMK AO1 SLP038
T10281056





000
SAUS41 KPHI 091555
MTR12N
METAR K12N 091554Z AUTO VRB04KT M03/M06 A2961 RMK AO1 SLP038
T10281056





000
SAUS41 KPHI 091455
MTR12N
METAR K12N 091454Z AUTO 05004KT M03/M06 A2963 RMK AO1 SLP046
T10331061 58004





000
SAUS41 KPHI 091355
MTR12N
METAR K12N 091354Z AUTO 00000KT M03/M06 A2965 RMK AO1 SLP052
T10331061





000
SAUS41 KPHI 091255
MTR12N
METAR K12N 091254Z AUTO 00000KT M04/M07 A2966 RMK AO1 SLP055
T10391067





000
SAUS41 KPHI 091255
MTR12N
METAR K12N 091254Z AUTO 00000KT M04/M07 A2966 RMK AO1 SLP055
T10391067





000
SAUS41 KPHI 091155
MTR12N
METAR K12N 091154Z AUTO 00000KT M04/M07 A2964 RMK AO1 SLP049 60001
70001 T10391067 11022 21039 55003





000
SAUS41 KPHI 091155
MTR12N
METAR K12N 091154Z AUTO 00000KT M04/M07 A2964 RMK AO1 SLP049 60001
70001 T10391067 11022 21039 55003





000
SAUS41 KPHI 091055
MTR12N
METAR K12N 091054Z AUTO 04005KT M04/M07 A2963 RMK AO1 SLP044
T10391067





000
SAUS41 KPHI 090955
MTR12N
METAR K12N 090954Z AUTO VRB03KT M03/M07 A2963 RMK AO1 SLP044
T10331067





000
SAUS41 KPHI 090855
MTR12N
METAR K12N 090854Z AUTO 00000KT M03/M06 A2965 RMK AO1 SLP051 60001
T10331061 58016





000
SAUS41 KPHI 090755
MTR12N
METAR K12N 090754Z AUTO 00000KT M03/M06 A2967 RMK AO1 SLP059
T10331061





000
SAUS41 KPHI 090655
MTR12N
METAR K12N 090654Z AUTO 00000KT M03/M05 A2969 RMK AO1 SLP063 P0001
T10281050





000
SAUS41 KPHI 090555
MTR12N
METAR K12N 090554Z AUTO 00000KT M02/M05 A2970 RMK AO1 SLP067
T10221050 11006 21028 56015





000
SAUS41 KPHI 090455
MTR12N
METAR K12N 090454Z AUTO VRB03KT M02/M06 A2972 RMK AO1 SLP073
T10221056 400221022





000
SAUS41 KPHI 090355
MTR12N
METAR K12N 090354Z AUTO VRB03KT M02/M05 A2972 RMK AO1 SLP075
T10221050





000
SAUS41 KPHI 090255
MTR12N
METAR K12N 090254Z AUTO 04006KT M02/M05 A2974 RMK AO1 SLP083
T10221050 58001





000
SAUS41 KPHI 090155
MTR12N
METAR K12N 090154Z AUTO 04006KT M02/M06 A2975 RMK AO1 SLP086
T10171061





000
SAUS41 KPHI 090155
MTR12N
METAR K12N 090154Z AUTO 04006KT M02/M06 A2975 RMK AO1 SLP086
T10171061





000
SAUS41 KPHI 090055
MTR12N
METAR K12N 090054Z AUTO 04006KT M01/M09 A2975 RMK AO1 SLP085
T10061089





000
SAUS41 KPHI 090055
MTR12N
METAR K12N 090054Z AUTO 04006KT M01/M09 A2975 RMK AO1 SLP085
T10061089





000
SAUS41 KPHI 082355
MTR12N
METAR K12N 082354Z AUTO VRB03KT M01/M09 A2975 RMK AO1 SLP084
T10061094 10022 21006 51014





000
SAUS41 KPHI 082355
MTR12N
METAR K12N 082354Z AUTO VRB03KT M01/M09 A2975 RMK AO1 SLP084
T10061094 10022 21006 51014





000
SAUS41 KPHI 082255
MTR12N
METAR K12N 082254Z AUTO 04006KT 00/M11 A2974 RMK AO1 SLP080
T00001111





000
SAUS41 KPHI 082255
MTR12N
METAR K12N 082254Z AUTO 04006KT 00/M11 A2974 RMK AO1 SLP080
T00001111





000
SAUS41 KPHI 082155
MTR12N
METAR K12N 082154Z AUTO 04005KT 01/M09 A2972 RMK AO1 SLP074
T00061094





000
SAUS41 KPHI 082055
MTR12N
METAR K12N 082054Z AUTO VRB04KT 01/M09 A2971 RMK AO1 SLP069
T00111094 55008





000
SAUS41 KPHI 081955
MTR12N
METAR K12N 081954Z AUTO 03008KT 02/M09 A2970 RMK AO1 SLP067
T00171094





000
SAUS41 KPHI 081855
MTR12N
METAR K12N 081854Z AUTO 04008G15KT 360V060 02/M10 A2970 RMK AO1
SLP066 T00221100





000
SAUS41 KPHI 081755
MTR12N
METAR K12N 081754Z AUTO 02/M09 A2973 RMK AO1 SLP077 T00171089 10022
20000 58024





000
SAUS41 KPHI 081656
MTR12N
METAR K12N 081654Z AUTO 03007KT 350V060 02/M06 A2976 RMK AO1 SLP088
T00171056





000
SAUS41 KPHI 081656
MTR12N
METAR K12N 081654Z AUTO 03007KT 350V060 02/M06 A2976 RMK AO1 SLP088
T00171056





000
SAUS41 KPHI 081555
MTR12N
METAR K12N 081554Z AUTO 02006KT 01/M05 A2980 RMK AO1 SLP100
T00111050





000
SAUS41 KPHI 081455
MTR12N
METAR K12N 081454Z AUTO 04007KT 360V060 01/M04 A2980 RMK AO1 SLP101
T00111039 53007





000
SAUS41 KPHI 081455
MTR12N
METAR K12N 081454Z AUTO 04007KT 360V060 01/M04 A2980 RMK AO1 SLP101
T00111039 53007





000
SAUS41 KPHI 081355
MTR12N
METAR K12N 081354Z AUTO 04008KT 01/M04 A2979 RMK AO1 SLP096
T00061039





000
SAUS41 KPHI 081255
MTR12N
METAR K12N 081254Z AUTO VRB05KT 01/M04 A2978 RMK AO1 SLP095
T00061039





000
SAUS41 KPHI 081255
MTR12N
METAR K12N 081254Z AUTO VRB05KT 01/M04 A2978 RMK AO1 SLP095
T00061039





000
SAUS41 KPHI 081155
MTR12N
METAR K12N 081154Z AUTO VRB04KT 00/M04 A2978 RMK AO1 SLP094
T00001044 10000 21011 53007





000
SAUS41 KPHI 081155
MTR12N
METAR K12N 081154Z AUTO VRB04KT 00/M04 A2978 RMK AO1 SLP094
T00001044 10000 21011 53007





000
SAUS41 KPHI 081055
MTR12N
METAR K12N 081054Z AUTO VRB03KT 00/M04 A2977 RMK AO1 SLP091
T00001044





000
SAUS41 KPHI 081055
MTR12N
METAR K12N 081054Z AUTO VRB03KT 00/M04 A2977 RMK AO1 SLP091
T00001044





000
SAUS41 KPHI 080955
MTR12N
METAR K12N 080954Z AUTO 04008KT 00/M05 A2976 RMK AO1 SLP084
T00001050





000
SAUS41 KPHI 080855
MTR12N
METAR K12N 080854Z AUTO 02004KT 00/M06 A2976 RMK AO1 SLP084
T00001056 58037





000
SAUS41 KPHI 080755
MTR12N
METAR K12N 080754Z AUTO 03005KT 00/M06 A2979 RMK AO1 PRESFR SLP095
T00001056





000
SAUS41 KPHI 080655
MTR12N
METAR K12N 080654Z AUTO 00000KT M01/M06 A2984 RMK AO1 SLP112
T10061056





000
SAUS41 KPHI 080555
MTR12N
METAR K12N 080554Z AUTO 00000KT M01/M06 A2987 RMK AO1 SLP123
T10061056 10022 21017 58024





000
SAUS41 KPHI 080555
MTR12N
METAR K12N 080554Z AUTO 00000KT M01/M06 A2987 RMK AO1 SLP123
T10061056 10022 21017 58024





000
SAUS41 KPHI 080455
MTR12N
METAR K12N 080454Z AUTO 01003KT M01/M06 A2990 RMK AO1 SLP133
T10111056 400831072





000
SAUS41 KPHI 080455
MTR12N
METAR K12N 080454Z AUTO 01003KT M01/M06 A2990 RMK AO1 SLP133
T10111056 400831072





000
SAUS41 KPHI 080355
MTR12N
METAR K12N 080354Z AUTO 00000KT M01/M04 A2992 RMK AO1 SLP141
T10061044





000
SAUS41 KPHI 080255
MTR12N
METAR K12N 080254Z AUTO 00000KT 00/M04 A2994 RMK AO1 SLP149
T00001044 58019





000
SAUS41 KPHI 080155
MTR12N
METAR K12N 080154Z AUTO 00000KT 01/M05 A2997 RMK AO1 SLP161
T00061050





000
SAUS41 KPHI 080055
MTR12N
METAR K12N 080054Z AUTO 00000KT 02/M06 A2997 RMK AO1 SLP161
T00171061





000
SAUS41 KPHI 080055
MTR12N
METAR K12N 080054Z AUTO 00000KT 02/M06 A2997 RMK AO1 SLP161
T00171061





000
SAUS41 KPHI 072355
MTR12N
METAR K12N 072354Z AUTO 00000KT 01/M06 A3000 RMK AO1 SLP172
T00111056 10083 20011 55004





000
SAUS41 KPHI 072355
MTR12N
METAR K12N 072354Z AUTO 00000KT 01/M06 A3000 RMK AO1 SLP172
T00111056 10083 20011 55004





000
SAUS41 KPHI 072255
MTR12N
METAR K12N 072254Z AUTO 00000KT 02/M06 A2998 RMK AO1 SLP164
T00221056





000
SAUS41 KPHI 072255
MTR12N
METAR K12N 072254Z AUTO 00000KT 02/M06 A2998 RMK AO1 SLP164
T00221056





000
SAUS41 KPHI 072155
MTR12N
METAR K12N 072154Z AUTO 00000KT 06/M07 A3001 RMK AO1 SLP172
T00611072





000
SAUS41 KPHI 072055
MTR12N
METAR K12N 072054Z AUTO 00000KT 08/M08 A3001 RMK AO1 SLP173
T00781083 56025





000
SAUS41 KPHI 071955
MTR12N
METAR K12N 071954Z AUTO 00000KT 08/M08 A3003 RMK AO1 SLP179
T00781078





000
SAUS41 KPHI 071955
MTR12N
METAR K12N 071954Z AUTO 00000KT 08/M08 A3003 RMK AO1 SLP179
T00781078





000
SAUS41 KPHI 071855
MTR12N
METAR K12N 071854Z AUTO 05003KT 08/M08 A3006 RMK AO1 SLP188
T00831078





000
SAUS41 KPHI 071855
MTR12N
METAR K12N 071854Z AUTO 05003KT 08/M08 A3006 RMK AO1 SLP188
T00831078





000
SAUS41 KPHI 071755
MTR12N
METAR K12N 071754Z AUTO 00000KT 07/M08 A3009 RMK AO1 SLP198
T00721078 10072 21072 58017





000
SAUS41 KPHI 071755
MTR12N
METAR K12N 071754Z AUTO 00000KT 07/M08 A3009 RMK AO1 SLP198
T00721078 10072 21072 58017





000
SAUS41 KPHI 071657
MTR12N
METAR K12N 071654Z AUTO 36003KT 06/M07 A3011 RMK AO1 SLP207
T00611072





000
SAUS41 KPHI 071657
MTR12N
METAR K12N 071654Z AUTO 36003KT 06/M07 A3011 RMK AO1 SLP207
T00611072





000
SAUS41 KPHI 071555
MTR12N
METAR K12N 071554Z AUTO 24003KT 04/M06 A3016 RMK AO1 SLP223
T00391061





000
SAUS41 KPHI 071455
MTR12N
METAR K12N 071454Z AUTO 16003KT 01/M04 A3014 RMK AO1 SLP218
T00061044 58010





000
SAUS41 KPHI 071355
MTR12N
METAR K12N 071354Z AUTO 00000KT M03/M04 A3016 RMK AO1 SLP227
T10281044





    US Dept of Commerce
    National Oceanic and Atmospheric Administration
    National Weather Service
    1325 East West Highway
    Silver Spring, MD 20910
    Page Author: NWS Internet Services Team
Disclaimer
Information Quality
Credits
Glossary
Privacy Policy
Freedom of Information Act (FOIA)
About Us
Career Opportunities